Terminal Aerodrome Forecast
Issued by NWS Quad Cities IA IL

Home | Current Version | Previous Version | Text Only | Print | Product List | Glossary On
Versions: 1 2 3 4 5 6 7 8 9 10 11 12 13 14 15 16 17 18 19 20 21
000
FTUS43 KDVN 222200 AAA
TAFMLI
TAF AMD
KMLI 222205Z 2222/2318 28005KT 5SM HZ OVC018
     FM230300 25006KT P6SM BKN025
     FM230700 22008KT P6SM SKC=

USA.gov is the U.S. government's official web portal to all federal, state and local government web resources and services.